Time;durP1;ratioP1;P1;durP2;ratioP2;P2;SDS_P1;SDS_P2;PMS_P1;PMS_P2;Temp;Humidity;BMP_temperature;BMP_pressure;BME280_temperature;BME280_humidity;BME280_pressure;Samples;Min_cycle;Max_cycle;Signal;HPM_P1;HPM_P2
2022/10/13 00:01:41;;;;;;;;;;;8.50;99.90;;;;;;5105229;28;19962;-72
2022/10/13 00:04:07;;;;;;;;;;;8.40;99.90;;;;;;5105759;28;19987;-73
2022/10/13 00:06:34;;;;;;;;;;;8.40;99.90;;;;;;5105869;28;19959;-73
2022/10/13 00:09:02;;;;;;;;;;;8.40;99.90;;;;;;5105742;28;19920;-74
2022/10/13 00:11:29;;;;;;;;;;;8.40;99.90;;;;;;5106232;28;19920;-74
2022/10/13 00:13:56;;;;;;;;;;;8.40;99.90;;;;;;5105825;28;19920;-71
2022/10/13 00:16:23;;;;;;;;;;;8.40;99.90;;;;;;5105399;28;20115;-72
2022/10/13 00:18:50;;;;;;;;;;;8.50;99.90;;;;;;5105826;28;19927;-71
2022/10/13 00:21:18;;;;;;;;;;;8.50;99.90;;;;;;5105570;28;19920;-71
2022/10/13 00:23:44;;;;;;;;;;;8.50;99.90;;;;;;5105749;28;19926;-71
2022/10/13 00:26:13;;;;;;;;;;;8.50;99.90;;;;;;5105599;28;20123;-71
2022/10/13 00:28:40;;;;;;;;;;;8.50;99.90;;;;;;5106073;28;19927;-72
2022/10/13 00:31:14;;;;;;;;;;;8.50;99.90;;;;;;5105237;28;20203;-72
2022/10/13 00:33:41;;;;;;;;;;;8.50;99.90;;;;;;5104622;28;19920;-72
2022/10/13 00:36:07;;;;;;;;;;;8.50;99.90;;;;;;5104548;28;19978;-72
2022/10/13 00:38:34;;;;;;;;;;;8.60;99.90;;;;;;5105644;28;20112;-73
2022/10/13 00:41:01;;;;;;;;;;;8.60;99.90;;;;;;5105566;28;19951;-72
2022/10/13 00:43:46;;;;;;;;;;;8.60;99.90;;;;;;5105249;28;19920;-72
2022/10/13 00:46:13;;;;;;;;;;;8.60;99.90;;;;;;5104697;28;20119;-73
2022/10/13 00:48:40;;;;;;;;;;;8.60;99.90;;;;;;5105024;28;19983;-72
2022/10/13 00:51:07;;;;;;;;;;;8.60;99.90;;;;;;5105000;28;19920;-73
2022/10/13 00:53:36;;;;;;;;;;;8.60;99.90;;;;;;5105201;28;19920;-72
2022/10/13 00:56:04;;;;;;;;;;;8.60;99.90;;;;;;5104639;28;19987;-71
2022/10/13 00:58:32;;;;;;;;;;;8.60;99.90;;;;;;5104974;28;19920;-72
2022/10/13 01:00:59;;;;;;;;;;;8.60;99.90;;;;;;5104400;28;20228;-72
2022/10/13 01:03:26;;;;;;;;;;;8.60;99.90;;;;;;5104778;28;19926;-72
2022/10/13 01:05:55;;;;;;;;;;;8.60;99.90;;;;;;5104308;28;20203;-72
2022/10/13 01:08:25;;;;;;;;;;;8.60;99.90;;;;;;5104783;28;19920;-73
2022/10/13 01:10:57;;;;;;;;;;;8.60;99.90;;;;;;5104674;28;20182;-73
2022/10/13 01:13:29;;;;;;;;;;;8.60;99.90;;;;;;5104829;28;20122;-73
2022/10/13 01:16:00;;;;;;;;;;;8.60;99.90;;;;;;5104337;28;19995;-73
2022/10/13 01:18:29;;;;;;;;;;;8.60;99.90;;;;;;5104568;28;20246;-72
2022/10/13 01:21:05;;;;;;;;;;;8.60;99.90;;;;;;5104530;28;19926;-73
2022/10/13 01:23:46;;;;;;;;;;;8.50;99.90;;;;;;5104207;28;19957;-74
2022/10/13 01:26:21;;;;;;;;;;;8.50;99.90;;;;;;5103223;28;19987;-71
2022/10/13 01:28:59;;;;;;;;;;;8.50;99.90;;;;;;5104669;28;19927;-72
2022/10/13 01:31:29;;;;;;;;;;;8.50;99.90;;;;;;5104423;28;19979;-71
2022/10/13 01:33:59;;;;;;;;;;;8.40;99.90;;;;;;5104088;28;19920;-72
2022/10/13 01:36:30;;;;;;;;;;;8.40;99.90;;;;;;5103647;28;20313;-73
2022/10/13 01:39:00;;;;;;;;;;;8.40;99.90;;;;;;5104430;28;19927;-72
2022/10/13 01:41:29;;;;;;;;;;;8.40;99.90;;;;;;5104239;28;19983;-71
2022/10/13 01:44:00;;;;;;;;;;;8.40;99.90;;;;;;5104265;28;19983;-72
2022/10/13 01:46:30;;;;;;;;;;;8.40;99.90;;;;;;5103698;28;19920;-72
2022/10/13 01:48:58;;;;;;;;;;;8.40;99.90;;;;;;5103658;28;19926;-73
2022/10/13 01:51:26;;;;;;;;;;;8.40;99.90;;;;;;5104100;28;19926;-72
2022/10/13 01:53:53;;;;;;;;;;;8.40;99.90;;;;;;5104049;28;19920;-72
2022/10/13 01:56:20;;;;;;;;;;;8.40;99.90;;;;;;5103521;28;20003;-71
2022/10/13 01:58:48;;;;;;;;;;;8.40;99.90;;;;;;5103924;28;20230;-73
2022/10/13 02:01:20;;;;;;;;;;;8.40;99.90;;;;;;5103636;28;19955;-72
2022/10/13 02:03:52;;;;;;;;;;;8.40;99.90;;;;;;5083728;28;19979;-70
2022/10/13 02:06:21;;;;;;;;;;;8.40;99.90;;;;;;5083313;28;20000;-72
2022/10/13 02:08:53;;;;;;;;;;;8.40;99.90;;;;;;5089373;28;19924;-71
2022/10/13 02:11:21;;;;;;;;;;;8.50;99.90;;;;;;5099563;28;20152;-73
2022/10/13 02:13:53;;;;;;;;;;;8.50;99.90;;;;;;5102598;28;20115;-73
2022/10/13 02:16:22;;;;;;;;;;;8.50;99.90;;;;;;5093829;28;19920;-73
2022/10/13 02:18:51;;;;;;;;;;;8.50;99.90;;;;;;5103305;28;19950;-71
2022/10/13 02:21:17;;;;;;;;;;;8.40;99.90;;;;;;5098210;28;20274;-73
2022/10/13 02:23:44;;;;;;;;;;;8.50;99.90;;;;;;5103031;28;19920;-72
2022/10/13 02:26:11;;;;;;;;;;;8.50;99.90;;;;;;5102330;28;19920;-73
2022/10/13 02:28:38;;;;;;;;;;;8.50;99.90;;;;;;5102507;28;19948;-72
2022/10/13 02:31:05;;;;;;;;;;;8.50;99.90;;;;;;5103249;28;19920;-72
2022/10/13 02:33:32;;;;;;;;;;;8.50;99.90;;;;;;5103773;28;19920;-73
2022/10/13 02:36:00;;;;;;;;;;;8.50;99.90;;;;;;5102819;28;19920;-72
2022/10/13 02:38:27;;;;;;;;;;;8.50;99.90;;;;;;5102821;28;19926;-72
2022/10/13 02:40:54;;;;;;;;;;;8.50;99.90;;;;;;5103406;28;19991;-72
2022/10/13 02:43:21;;;;;;;;;;;8.50;99.90;;;;;;5102943;28;19935;-72
2022/10/13 02:45:47;;;;;;;;;;;8.50;99.90;;;;;;5102910;28;20123;-73
2022/10/13 02:48:14;;;;;;;;;;;8.50;99.90;;;;;;5103360;28;19995;-72
2022/10/13 02:50:40;;;;;;;;;;;8.50;99.90;;;;;;5103269;28;20171;-73
2022/10/13 02:53:08;;;;;;;;;;;8.50;99.90;;;;;;5102944;28;19983;-72
2022/10/13 02:55:35;;;;;;;;;;;8.60;99.90;;;;;;5102763;28;19920;-71
2022/10/13 02:58:01;;;;;;;;;;;8.50;99.90;;;;;;5103058;28;19983;-72
2022/10/13 03:00:28;;;;;;;;;;;8.50;99.90;;;;;;5102716;28;19987;-74
2022/10/13 03:02:55;;;;;;;;;;;8.50;99.90;;;;;;5103035;28;19962;-73
2022/10/13 03:05:22;;;;;;;;;;;8.60;99.90;;;;;;5102986;28;19927;-72
2022/10/13 03:07:49;;;;;;;;;;;8.60;99.90;;;;;;5102935;28;19920;-73
2022/10/13 03:10:17;;;;;;;;;;;8.60;99.90;;;;;;5103057;28;19920;-72
2022/10/13 03:12:44;;;;;;;;;;;8.60;99.90;;;;;;5103193;28;19920;-72
2022/10/13 03:15:11;;;;;;;;;;;8.50;99.90;;;;;;5102365;28;20216;-73
2022/10/13 03:17:38;;;;;;;;;;;8.50;99.90;;;;;;5102782;28;20017;-72
2022/10/13 03:20:05;;;;;;;;;;;8.50;99.90;;;;;;5103261;28;19991;-73
2022/10/13 03:22:32;;;;;;;;;;;8.50;99.90;;;;;;5103138;28;19924;-72
2022/10/13 03:24:58;;;;;;;;;;;8.40;99.90;;;;;;5102344;28;19987;-73
2022/10/13 03:27:26;;;;;;;;;;;8.40;99.90;;;;;;5102534;28;19942;-73
2022/10/13 03:29:53;;;;;;;;;;;8.40;99.90;;;;;;5103077;28;19920;-73
2022/10/13 03:32:20;;;;;;;;;;;8.50;99.90;;;;;;5102552;28;20222;-73
2022/10/13 03:34:46;;;;;;;;;;;8.50;99.90;;;;;;5102384;28;19987;-72
2022/10/13 03:37:13;;;;;;;;;;;8.50;99.90;;;;;;5106346;28;19928;-74
2022/10/13 03:39:39;;;;;;;;;;;8.50;99.90;;;;;;5106334;28;19991;-73
2022/10/13 03:42:06;;;;;;;;;;;8.50;99.90;;;;;;5106666;28;19987;-73
2022/10/13 03:44:34;;;;;;;;;;;8.50;99.90;;;;;;5106009;28;19959;-71
2022/10/13 03:47:01;;;;;;;;;;;8.50;99.90;;;;;;5105962;28;20155;-73
2022/10/13 03:49:27;;;;;;;;;;;8.50;99.90;;;;;;5106226;28;19927;-74
2022/10/13 03:51:54;;;;;;;;;;;8.60;99.90;;;;;;5106229;28;19997;-73
2022/10/13 03:54:20;;;;;;;;;;;8.60;99.90;;;;;;5106382;28;19920;-72
2022/10/13 03:56:47;;;;;;;;;;;8.60;99.90;;;;;;5105890;28;19920;-72
2022/10/13 03:59:15;;;;;;;;;;;8.60;99.90;;;;;;5106086;28;20148;-73
2022/10/13 04:01:43;;;;;;;;;;;8.60;99.90;;;;;;5102778;28;19920;-73
2022/10/13 04:04:11;;;;;;;;;;;8.60;99.90;;;;;;5105842;28;19920;-73
2022/10/13 04:06:37;;;;;;;;;;;8.60;99.90;;;;;;5103904;28;19927;-72
2022/10/13 04:09:04;;;;;;;;;;;8.60;99.90;;;;;;5092608;28;19987;-73
2022/10/13 04:11:31;;;;;;;;;;;8.70;99.90;;;;;;5097425;28;19921;-72
2022/10/13 04:13:57;;;;;;;;;;;8.70;99.90;;;;;;5093887;28;19955;-72
2022/10/13 04:16:25;;;;;;;;;;;8.70;99.90;;;;;;5100273;28;20211;-72
2022/10/13 04:18:54;;;;;;;;;;;8.70;99.90;;;;;;5102120;28;19921;-72
2022/10/13 04:21:21;;;;;;;;;;;8.70;99.90;;;;;;5096290;28;19964;-72
2022/10/13 04:23:48;;;;;;;;;;;8.70;99.90;;;;;;5105827;28;19920;-72
2022/10/13 04:26:15;;;;;;;;;;;8.70;99.90;;;;;;5105655;28;19928;-72
2022/10/13 04:28:42;;;;;;;;;;;8.70;99.90;;;;;;5105681;28;19920;-72
2022/10/13 04:31:08;;;;;;;;;;;8.70;99.90;;;;;;5106399;28;19920;-72
2022/10/13 04:33:35;;;;;;;;;;;8.80;99.90;;;;;;5106264;28;20024;-72
2022/10/13 04:36:04;;;;;;;;;;;8.80;99.90;;;;;;5105935;28;19920;-72
2022/10/13 04:38:31;;;;;;;;;;;8.80;99.90;;;;;;5106024;28;19946;-71
2022/10/13 04:40:58;;;;;;;;;;;8.90;99.90;;;;;;5106140;28;20089;-71
2022/10/13 04:43:24;;;;;;;;;;;8.90;99.90;;;;;;5106269;28;19955;-72
2022/10/13 04:45:51;;;;;;;;;;;8.90;99.90;;;;;;5104932;28;19978;-72
2022/10/13 04:48:18;;;;;;;;;;;8.90;99.90;;;;;;5105755;28;19927;-72
2022/10/13 04:50:44;;;;;;;;;;;8.90;99.90;;;;;;5105674;28;20283;-72
2022/10/13 04:53:12;;;;;;;;;;;8.90;99.90;;;;;;5105808;28;19991;-72
2022/10/13 04:55:39;;;;;;;;;;;8.90;99.90;;;;;;5105530;28;19924;-72
2022/10/13 04:58:05;;;;;;;;;;;8.90;99.90;;;;;;5105382;28;19920;-72
2022/10/13 05:03:00;;;;;;;;;;;9.00;99.90;;;;;;5142695;27;20034;-70
2022/10/13 05:05:26;;;;;;;;;;;9.00;99.90;;;;;;5145615;27;19986;-69
2022/10/13 05:07:53;;;;;;;;;;;9.10;99.90;;;;;;5146022;27;20222;-70
2022/10/13 05:10:21;;;;;;;;;;;9.10;99.90;;;;;;5145456;27;19982;-70
2022/10/13 05:12:47;;;;;;;;;;;9.10;99.90;;;;;;5145690;27;19942;-69
2022/10/13 05:15:14;;;;;;;;;;;9.20;99.90;;;;;;5145312;27;19919;-75
2022/10/13 05:17:41;;;;;;;;;;;9.20;99.90;;;;;;5140366;27;19920;-71
2022/10/13 05:20:08;;;;;;;;;;;9.20;99.90;;;;;;5122935;28;20123;-71
2022/10/13 05:22:35;;;;;;;;;;;9.20;99.90;;;;;;5125522;27;19965;-75
2022/10/13 05:25:02;;;;;;;;;;;9.10;99.90;;;;;;5124442;28;19928;-69
2022/10/13 05:27:30;;;;;;;;;;;9.20;99.90;;;;;;5125256;28;19991;-69
2022/10/13 05:30:03;;;;;;;;;;;9.20;99.90;;;;;;5122972;28;19926;-70
2022/10/13 05:32:30;;;;;;;;;;;9.20;99.90;;;;;;5128806;27;19930;-70
2022/10/13 05:34:56;;;;;;;;;;;9.20;99.90;;;;;;5124368;27;20175;-70
2022/10/13 05:37:23;;;;;;;;;;;9.30;99.90;;;;;;5125299;28;19919;-69
2022/10/13 05:39:50;;;;;;;;;;;9.30;99.90;;;;;;5135850;27;19919;-69
2022/10/13 05:42:17;;;;;;;;;;;9.30;99.90;;;;;;5145531;27;19926;-69
2022/10/13 05:44:44;;;;;;;;;;;9.30;99.90;;;;;;5144498;27;19958;-70
2022/10/13 05:47:11;;;;;;;;;;;9.30;99.90;;;;;;5145778;27;19920;-70
2022/10/13 05:49:39;;;;;;;;;;;9.30;99.90;;;;;;5145432;27;19941;-69
2022/10/13 05:52:08;;;;;;;;;;;9.30;99.90;;;;;;5148375;27;19919;-70
2022/10/13 05:54:36;;;;;;;;;;;9.40;99.90;;;;;;5148431;27;19919;-70
2022/10/13 05:57:04;;;;;;;;;;;9.40;99.90;;;;;;5144764;27;19919;-70
2022/10/13 05:59:33;;;;;;;;;;;9.40;99.90;;;;;;5144994;27;19919;-69
2022/10/13 06:02:02;;;;;;;;;;;9.50;99.90;;;;;;5145225;27;19978;-69
2022/10/13 06:04:31;;;;;;;;;;;9.50;99.90;;;;;;5132139;27;19955;-69
2022/10/13 06:07:01;;;;;;;;;;;9.60;99.90;;;;;;5122977;28;19923;-70
2022/10/13 06:09:33;;;;;;;;;;;9.70;99.90;;;;;;5124558;28;19919;-70
2022/10/13 06:12:00;;;;;;;;;;;9.70;99.90;;;;;;5124511;28;20211;-69
2022/10/13 06:14:26;;;;;;;;;;;9.70;99.90;;;;;;5124582;28;19987;-70
2022/10/13 06:16:53;;;;;;;;;;;9.70;99.90;;;;;;5126804;27;20225;-69
2022/10/13 06:19:21;;;;;;;;;;;9.80;99.90;;;;;;5145294;27;19954;-70
2022/10/13 06:21:47;;;;;;;;;;;9.70;99.90;;;;;;5145002;27;19925;-70
2022/10/13 06:24:14;;;;;;;;;;;9.80;99.90;;;;;;5144793;27;19999;-70
2022/10/13 06:26:40;;;;;;;;;;;9.70;99.90;;;;;;5135997;27;20110;-70
2022/10/13 06:29:07;;;;;;;;;;;9.80;99.90;;;;;;5128335;27;19987;-72
2022/10/13 06:31:34;;;;;;;;;;;9.80;99.90;;;;;;5123271;28;19923;-69
2022/10/13 06:34:00;;;;;;;;;;;9.80;99.90;;;;;;5125088;27;19983;-69
2022/10/13 06:36:30;;;;;;;;;;;9.80;99.90;;;;;;5136885;27;20322;-70
2022/10/13 06:38:56;;;;;;;;;;;9.90;99.90;;;;;;5122727;28;19919;-70
2022/10/13 06:41:23;;;;;;;;;;;9.90;99.90;;;;;;5124208;28;19952;-70
2022/10/13 06:43:50;;;;;;;;;;;9.90;99.90;;;;;;5123844;28;19983;-70
2022/10/13 06:46:17;;;;;;;;;;;9.90;99.90;;;;;;5120998;28;19920;-70
2022/10/13 06:48:43;;;;;;;;;;;9.90;99.90;;;;;;5124308;28;19924;-70
2022/10/13 06:51:11;;;;;;;;;;;10.00;99.90;;;;;;5129060;28;19927;-70
2022/10/13 06:53:39;;;;;;;;;;;10.00;99.90;;;;;;5142326;28;19982;-70
2022/10/13 06:56:06;;;;;;;;;;;10.00;99.90;;;;;;5143245;28;19919;-70
2022/10/13 06:58:34;;;;;;;;;;;10.00;99.90;;;;;;5143822;28;19926;-70
2022/10/13 07:01:00;;;;;;;;;;;10.00;99.90;;;;;;5144237;28;19919;-70
2022/10/13 07:03:27;;;;;;;;;;;10.10;99.90;;;;;;5143748;28;19919;-70
2022/10/13 07:05:54;;;;;;;;;;;10.10;99.90;;;;;;5143542;28;19933;-70
2022/10/13 07:08:20;;;;;;;;;;;10.20;99.90;;;;;;5134657;28;19942;-70
2022/10/13 07:10:48;;;;;;;;;;;10.20;99.90;;;;;;5127418;27;19919;-70
2022/10/13 07:13:15;;;;;;;;;;;10.20;99.90;;;;;;5127754;28;19920;-70
2022/10/13 07:15:42;;;;;;;;;;;10.20;99.90;;;;;;5126915;28;19919;-70
2022/10/13 07:18:08;;;;;;;;;;;10.30;99.90;;;;;;5131303;27;19990;-70
2022/10/13 07:20:35;;;;;;;;;;;10.30;99.90;;;;;;5147855;27;20199;-70
2022/10/13 07:23:02;;;;;;;;;;;10.30;99.90;;;;;;5148459;27;19919;-70
2022/10/13 07:25:28;;;;;;;;;;;10.40;99.90;;;;;;5147534;27;19951;-70
2022/10/13 07:27:57;;;;;;;;;;;10.40;99.90;;;;;;5147936;27;19979;-70
2022/10/13 07:30:24;;;;;;;;;;;10.40;99.90;;;;;;5146781;27;19926;-70
2022/10/13 07:32:51;;;;;;;;;;;10.40;99.90;;;;;;5126967;28;20221;-70
2022/10/13 07:35:17;;;;;;;;;;;10.50;99.90;;;;;;5145317;27;19978;-70
2022/10/13 07:37:45;;;;;;;;;;;10.50;99.90;;;;;;5145743;27;20187;-70
2022/10/13 07:40:12;;;;;;;;;;;10.50;99.90;;;;;;5136693;27;19942;-69
2022/10/13 07:42:38;;;;;;;;;;;10.60;99.90;;;;;;5127089;28;19919;-70
2022/10/13 07:45:07;;;;;;;;;;;10.60;99.90;;;;;;5126208;28;19950;-70
2022/10/13 07:47:34;;;;;;;;;;;10.60;99.90;;;;;;5127282;27;19928;-70
2022/10/13 07:50:00;;;;;;;;;;;10.60;99.90;;;;;;5135007;27;19982;-70
2022/10/13 07:52:27;;;;;;;;;;;10.70;99.90;;;;;;5147640;27;19920;-69
2022/10/13 07:54:53;;;;;;;;;;;10.70;99.90;;;;;;5146941;27;19919;-70
2022/10/13 07:57:20;;;;;;;;;;;10.80;99.90;;;;;;5147412;27;19919;-70
2022/10/13 07:59:47;;;;;;;;;;;10.80;99.90;;;;;;5140989;27;19920;-70
2022/10/13 08:02:15;;;;;;;;;;;10.80;99.90;;;;;;5126414;28;20014;-70
2022/10/13 08:04:41;;;;;;;;;;;10.90;99.90;;;;;;5126744;27;20302;-70
2022/10/13 08:07:08;;;;;;;;;;;10.90;99.90;;;;;;5126535;28;19988;-70
2022/10/13 08:09:35;;;;;;;;;;;10.90;99.90;;;;;;5126879;27;20211;-70
2022/10/13 08:12:01;;;;;;;;;;;10.90;99.90;;;;;;5126623;28;19998;-70
2022/10/13 08:14:28;;;;;;;;;;;10.90;99.90;;;;;;5130946;27;20042;-70
2022/10/13 08:16:55;;;;;;;;;;;10.90;99.90;;;;;;5146757;27;19919;-69
2022/10/13 08:19:25;;;;;;;;;;;10.90;99.90;;;;;;5146580;27;20003;-70
2022/10/13 08:21:51;;;;;;;;;;;10.90;99.90;;;;;;5146104;27;19920;-70
2022/10/13 08:24:18;;;;;;;;;;;11.00;99.90;;;;;;5146273;27;19919;-70
2022/10/13 08:26:45;;;;;;;;;;;11.00;99.90;;;;;;5146077;27;19919;-69
2022/10/13 08:29:13;;;;;;;;;;;11.10;99.90;;;;;;5145894;27;19956;-69
2022/10/13 08:31:39;;;;;;;;;;;11.10;99.90;;;;;;5142691;27;19920;-69
2022/10/13 08:34:06;;;;;;;;;;;11.10;99.90;;;;;;5146839;27;19982;-70
2022/10/13 08:36:34;;;;;;;;;;;11.10;99.90;;;;;;5140744;27;19931;-70
2022/10/13 08:39:00;;;;;;;;;;;11.10;99.90;;;;;;5134674;27;20211;-70
2022/10/13 08:41:30;;;;;;;;;;;11.20;99.90;;;;;;5146081;27;19987;-70
2022/10/13 08:43:57;;;;;;;;;;;11.20;99.90;;;;;;5126080;28;19928;-70
2022/10/13 08:46:25;;;;;;;;;;;11.30;99.90;;;;;;5122946;28;19926;-70
2022/10/13 08:48:52;;;;;;;;;;;11.30;99.90;;;;;;5125834;28;20199;-70
2022/10/13 08:51:19;;;;;;;;;;;11.30;99.90;;;;;;5126110;28;19920;-70
2022/10/13 08:53:47;;;;;;;;;;;11.40;99.90;;;;;;5139583;27;19927;-70
2022/10/13 08:56:16;;;;;;;;;;;11.40;99.90;;;;;;5136296;27;19926;-71
2022/10/13 08:58:43;;;;;;;;;;;11.40;99.90;;;;;;5138619;27;19926;-70
2022/10/13 09:01:12;;;;;;;;;;;11.50;99.90;;;;;;5126149;27;19932;-70
2022/10/13 09:03:44;;;;;;;;;;;11.60;99.90;;;;;;5145566;27;19957;-70
2022/10/13 09:06:13;;;;;;;;;;;11.60;99.90;;;;;;5130893;27;20115;-70
2022/10/13 09:08:41;;;;;;;;;;;11.70;99.90;;;;;;5125387;28;19987;-70
2022/10/13 09:11:10;;;;;;;;;;;11.70;99.90;;;;;;5125490;28;19920;-70
2022/10/13 09:13:37;;;;;;;;;;;11.70;99.90;;;;;;5142990;27;19926;-70
2022/10/13 09:16:04;;;;;;;;;;;11.70;99.90;;;;;;5145181;27;20002;-70
2022/10/13 09:18:31;;;;;;;;;;;11.80;99.90;;;;;;5129884;27;19919;-70
2022/10/13 09:21:09;;;;;;;;;;;11.80;99.90;;;;;;5137785;27;19957;-70
2022/10/13 09:23:35;;;;;;;;;;;11.80;99.90;;;;;;5145196;27;19926;-69
2022/10/13 09:26:06;;;;;;;;;;;11.90;99.90;;;;;;5145068;27;19951;-70
2022/10/13 09:28:35;;;;;;;;;;;11.90;99.90;;;;;;5145766;27;19925;-70
2022/10/13 09:31:03;;;;;;;;;;;11.90;99.90;;;;;;5143782;27;19934;-70
2022/10/13 09:33:33;;;;;;;;;;;12.00;99.90;;;;;;5124186;28;19920;-70
2022/10/13 09:36:09;;;;;;;;;;;12.00;99.90;;;;;;5122130;27;19934;-70
2022/10/13 09:38:36;;;;;;;;;;;12.10;99.90;;;;;;5124892;28;19920;-70
2022/10/13 09:41:04;;;;;;;;;;;12.10;99.90;;;;;;5124870;28;19920;-69
2022/10/13 09:43:32;;;;;;;;;;;12.20;99.90;;;;;;5140801;27;20088;-70
2022/10/13 09:46:01;;;;;;;;;;;12.20;99.90;;;;;;5144665;27;19950;-70
2022/10/13 09:48:29;;;;;;;;;;;12.30;99.90;;;;;;5144505;27;20035;-70
2022/10/13 09:50:57;;;;;;;;;;;12.30;99.90;;;;;;5145147;27;19920;-70
2022/10/13 09:53:28;;;;;;;;;;;12.30;99.90;;;;;;5129741;27;19965;-70
2022/10/13 09:56:08;;;;;;;;;;;12.40;99.90;;;;;;5123736;27;19927;-70
2022/10/13 09:58:37;;;;;;;;;;;12.40;99.90;;;;;;5124417;28;19994;-70
2022/10/13 10:01:05;;;;;;;;;;;12.40;99.90;;;;;;5130448;27;19919;-70
2022/10/13 10:03:33;;;;;;;;;;;12.50;99.90;;;;;;5144437;27;20211;-70
2022/10/13 10:06:00;;;;;;;;;;;12.50;99.90;;;;;;5144485;27;19919;-69
2022/10/13 10:08:31;;;;;;;;;;;12.60;99.90;;;;;;5144849;27;19926;-70
2022/10/13 10:11:00;;;;;;;;;;;12.60;99.90;;;;;;5137035;27;20229;-71
2022/10/13 10:13:26;;;;;;;;;;;12.70;99.90;;;;;;5124264;28;19934;-70
2022/10/13 10:15:55;;;;;;;;;;;12.70;99.90;;;;;;5124404;28;19923;-70
2022/10/13 10:18:28;;;;;;;;;;;12.80;99.90;;;;;;5132916;27;19919;-70
2022/10/13 10:21:00;;;;;;;;;;;12.80;99.90;;;;;;5137292;27;19919;-70
2022/10/13 10:23:35;;;;;;;;;;;12.90;99.90;;;;;;5144706;27;19941;-70
2022/10/13 10:26:04;;;;;;;;;;;12.90;99.90;;;;;;5144405;27;19927;-70
2022/10/13 10:28:43;;;;;;;;;;;13.00;99.90;;;;;;5144536;27;20286;-70
2022/10/13 10:31:18;;;;;;;;;;;13.00;99.90;;;;;;5140287;27;20110;-70
2022/10/13 10:33:51;;;;;;;;;;;13.10;99.90;;;;;;5124022;28;19986;-70
2022/10/13 10:36:21;;;;;;;;;;;13.20;99.90;;;;;;5123516;27;20122;-71
2022/10/13 10:38:50;;;;;;;;;;;13.30;99.90;;;;;;5140016;27;19982;-71
2022/10/13 10:41:24;;;;;;;;;;;13.30;99.90;;;;;;5135678;28;19920;-70
2022/10/13 10:43:52;;;;;;;;;;;13.40;99.90;;;;;;5123632;28;19923;-70
2022/10/13 10:46:21;;;;;;;;;;;13.50;99.90;;;;;;5123217;28;20122;-70
2022/10/13 10:48:52;;;;;;;;;;;13.50;99.90;;;;;;5123746;28;19920;-70
2022/10/13 10:51:20;;;;;;;;;;;13.60;99.90;;;;;;5131837;28;19991;-70
2022/10/13 10:53:52;;;;;;;;;;;13.80;99.90;;;;;;5144525;28;19919;-69
2022/10/13 10:56:20;;;;;;;;;;;14.00;99.90;;;;;;5143796;28;19954;-70
2022/10/13 10:58:51;;;;;;;;;;;14.00;99.90;;;;;;5144507;28;19920;-70
2022/10/13 11:01:25;;;;;;;;;;;14.20;99.90;;;;;;5136029;28;19926;-71
2022/10/13 11:03:57;;;;;;;;;;;14.20;99.90;;;;;;5124068;28;19926;-71
2022/10/13 11:06:31;;;;;;;;;;;14.20;99.90;;;;;;5128057;28;19919;-71
2022/10/13 11:08:58;;;;;;;;;;;14.30;99.90;;;;;;5144248;28;19986;-72
2022/10/13 11:11:41;;;;;;;;;;;14.50;99.90;;;;;;5143697;28;20114;-72
2022/10/13 11:14:24;;;;;;;;;;;14.50;99.90;;;;;;5139963;28;19923;-71
2022/10/13 11:17:10;;;;;;;;;;;14.50;99.90;;;;;;5127143;28;19945;-71
2022/10/13 11:19:39;;;;;;;;;;;14.50;99.90;;;;;;5144398;28;19934;-71
2022/10/13 11:22:21;;;;;;;;;;;14.50;99.90;;;;;;5134488;28;19920;-70
2022/10/13 11:25:05;;;;;;;;;;;14.50;99.90;;;;;;5141658;28;19924;-71
2022/10/13 11:27:39;;;;;;;;;;;14.40;99.90;;;;;;5134700;28;20234;-71
2022/10/13 11:30:26;;;;;;;;;;;14.30;99.90;;;;;;5123939;28;19920;-69
2022/10/13 11:32:56;;;;;;;;;;;14.30;99.90;;;;;;5121221;28;19926;-71
2022/10/13 11:35:26;;;;;;;;;;;14.20;99.90;;;;;;5124839;28;19951;-69
2022/10/13 11:38:03;;;;;;;;;;;14.20;99.90;;;;;;5134067;28;19919;-68
2022/10/13 11:40:32;;;;;;;;;;;14.20;99.90;;;;;;5134900;28;19919;-71
2022/10/13 11:43:03;;;;;;;;;;;14.20;99.90;;;;;;5121424;28;19927;-69
2022/10/13 11:45:57;;;;;;;;;;;14.20;99.90;;;;;;5141482;28;19931;-69
2022/10/13 11:48:44;;;;;;;;;;;14.20;99.90;;;;;;5141736;28;19950;-69
2022/10/13 11:51:24;;;;;;;;;;;14.20;99.90;;;;;;5144215;28;19986;-68
2022/10/13 11:53:54;;;;;;;;;;;14.20;99.90;;;;;;5142817;28;19982;-70
2022/10/13 11:56:21;;;;;;;;;;;14.20;99.90;;;;;;5144858;27;19926;-71
2022/10/13 11:59:18;;;;;;;;;;;14.20;99.90;;;;;;5146307;27;19919;-69
2022/10/13 12:01:44;;;;;;;;;;;14.10;99.90;;;;;;5147172;27;19947;-69
2022/10/13 12:04:13;;;;;;;;;;;14.10;99.90;;;;;;5141031;27;19992;-71
2022/10/13 12:06:41;;;;;;;;;;;14.10;99.90;;;;;;5126665;28;20170;-69
2022/10/13 12:09:16;;;;;;;;;;;14.10;99.90;;;;;;5123505;28;20221;-72
2022/10/13 12:11:43;;;;;;;;;;;14.10;99.90;;;;;;5126958;27;20178;-69
2022/10/13 12:14:19;;;;;;;;;;;14.10;99.90;;;;;;5126781;28;19983;-71
2022/10/13 12:16:52;;;;;;;;;;;14.10;99.90;;;;;;5126076;28;19987;-72
2022/10/13 12:19:19;;;;;;;;;;;14.20;99.90;;;;;;5126905;28;19926;-74
2022/10/13 12:21:51;;;;;;;;;;;14.20;99.90;;;;;;5126686;28;20127;-71
2022/10/13 12:24:17;;;;;;;;;;;14.30;99.90;;;;;;5126672;28;19926;-71
2022/10/13 12:26:44;;;;;;;;;;;14.30;99.90;;;;;;5125962;27;19986;-71
2022/10/13 12:29:12;;;;;;;;;;;14.30;99.90;;;;;;5126617;28;19991;-72
2022/10/13 12:31:40;;;;;;;;;;;14.40;99.90;;;;;;5143205;27;19919;-71
2022/10/13 12:34:16;;;;;;;;;;;14.40;99.90;;;;;;5147101;27;19941;-71
2022/10/13 12:36:45;;;;;;;;;;;14.40;99.90;;;;;;5143697;27;19926;-71
2022/10/13 12:39:16;;;;;;;;;;;14.50;99.90;;;;;;5128215;27;20149;-71
2022/10/13 12:41:43;;;;;;;;;;;14.50;99.90;;;;;;5126299;27;19926;-72
2022/10/13 12:44:13;;;;;;;;;;;14.60;99.90;;;;;;5144325;27;19951;-70
2022/10/13 12:46:41;;;;;;;;;;;14.60;99.90;;;;;;5145654;27;19920;-72
2022/10/13 12:49:12;;;;;;;;;;;14.60;99.90;;;;;;5146897;27;19920;-71
2022/10/13 12:51:39;;;;;;;;;;;14.60;99.90;;;;;;5146729;27;19990;-72
2022/10/13 12:54:07;;;;;;;;;;;14.60;99.90;;;;;;5146727;27;19982;-72
2022/10/13 12:56:35;;;;;;;;;;;14.70;99.90;;;;;;5143990;27;20114;-72
2022/10/13 12:59:02;;;;;;;;;;;14.70;99.90;;;;;;5146066;27;20199;-71
2022/10/13 13:01:30;;;;;;;;;;;14.70;99.90;;;;;;5146430;27;19919;-71
2022/10/13 13:03:58;;;;;;;;;;;14.80;99.90;;;;;;5146153;27;19919;-70
2022/10/13 13:06:28;;;;;;;;;;;14.80;99.90;;;;;;5145554;27;19928;-72
2022/10/13 13:09:27;;;;;;;;;;;14.80;99.90;;;;;;5146193;27;19925;-72
2022/10/13 13:12:21;;;;;;;;;;;14.80;99.90;;;;;;5146078;27;19926;-72
2022/10/13 13:14:50;;;;;;;;;;;14.80;99.90;;;;;;5077555;28;19978;-71
2022/10/13 13:17:31;;;;;;;;;;;14.80;99.90;;;;;;5125577;28;19919;-72
2022/10/13 13:19:57;;;;;;;;;;;14.80;99.90;;;;;;5136481;27;20133;-71
2022/10/13 13:22:25;;;;;;;;;;;14.80;99.90;;;;;;5143534;27;19919;-71
2022/10/13 13:24:51;;;;;;;;;;;14.80;99.90;;;;;;5144974;27;20207;-70
2022/10/13 13:27:20;;;;;;;;;;;14.80;99.90;;;;;;5145691;27;19986;-72
2022/10/13 13:29:47;;;;;;;;;;;14.80;99.90;;;;;;5145981;27;19982;-71
2022/10/13 13:32:15;;;;;;;;;;;14.80;99.90;;;;;;5136395;27;19927;-69
2022/10/13 13:34:42;;;;;;;;;;;14.80;99.90;;;;;;5124661;28;19920;-74
2022/10/13 13:37:12;;;;;;;;;;;14.80;99.90;;;;;;5129515;27;19919;-71
2022/10/13 13:39:38;;;;;;;;;;;14.90;99.90;;;;;;5145657;27;19978;-71
2022/10/13 13:42:05;;;;;;;;;;;14.80;99.90;;;;;;5145138;27;19920;-71
2022/10/13 13:44:32;;;;;;;;;;;14.90;99.90;;;;;;5144812;27;19960;-70
2022/10/13 13:46:58;;;;;;;;;;;14.90;99.90;;;;;;5145471;27;19926;-71
2022/10/13 13:49:27;;;;;;;;;;;15.00;99.90;;;;;;5143885;27;19998;-71
2022/10/13 13:51:54;;;;;;;;;;;15.20;99.90;;;;;;5145401;27;19982;-70
2022/10/13 13:54:20;;;;;;;;;;;15.40;99.90;;;;;;5145155;27;20203;-71
2022/10/13 13:56:47;;;;;;;;;;;15.60;99.90;;;;;;5144815;27;19927;-71
2022/10/13 13:59:13;;;;;;;;;;;15.80;99.90;;;;;;5145018;27;19982;-71
2022/10/13 14:01:40;;;;;;;;;;;16.00;99.90;;;;;;5144475;27;19919;-70
2022/10/13 14:04:07;;;;;;;;;;;16.10;99.90;;;;;;5145689;27;19982;-71
2022/10/13 14:06:36;;;;;;;;;;;16.20;99.90;;;;;;5144189;27;20297;-68
2022/10/13 14:09:03;;;;;;;;;;;16.20;99.90;;;;;;5124377;28;19973;-69
2022/10/13 14:11:30;;;;;;;;;;;16.30;99.90;;;;;;5124912;28;20085;-69
2022/10/13 14:14:00;;;;;;;;;;;16.30;99.90;;;;;;5124604;28;19987;-69
2022/10/13 14:16:27;;;;;;;;;;;16.30;99.90;;;;;;5123825;28;19920;-69
2022/10/13 14:18:55;;;;;;;;;;;16.20;99.90;;;;;;5130013;27;19927;-69
2022/10/13 14:21:22;;;;;;;;;;;16.30;99.90;;;;;;5145021;27;19919;-70
2022/10/13 14:23:50;;;;;;;;;;;16.30;99.90;;;;;;5137747;27;20214;-70
2022/10/13 14:26:17;;;;;;;;;;;16.30;99.90;;;;;;5138838;27;19919;-70
2022/10/13 14:28:44;;;;;;;;;;;16.40;99.90;;;;;;5133123;27;20207;-70
2022/10/13 14:31:11;;;;;;;;;;;16.50;99.90;;;;;;5144362;27;19942;-70
2022/10/13 14:33:38;;;;;;;;;;;16.60;99.90;;;;;;5125948;27;19927;-71
2022/10/13 14:36:05;;;;;;;;;;;16.60;99.90;;;;;;5140524;27;19941;-70